Observations for EAST MIDLANDS, United Kingdom (EGNX)

EGNX 150020Z 24013KT 9999 -SHRA BKN018 02/02 Q0987  
EGNX 142350Z 25016KT 9999 -RA SCT009 BKN019 02/01 Q0987 
EGNX 142320Z 25014KT 9999 -RA FEW011 BKN019 03/02 Q0987 
EGNX 142250Z 25017KT 9999 -RA SCT010 BKN024 03/02 Q0987 
EGNX 142220Z 25016KT 9999 -RA FEW011 SCT023 03/02 Q0987 
EGNX 142150Z 24012KT 9999 FEW031 03/02 Q0987
EGNX 142120Z 25015KT 9999 FEW010 02/02 Q0986
EGNX 142050Z 23013KT 9999 FEW010 02/01 Q0986
EGNX 142020Z 24013KT 9999 FEW019 02/02 Q0986
EGNX 141950Z 24013KT 9999 BKN029 02/02 Q0986
EGNX 141920Z 25012KT 9999 BKN011 BKN025 03/02 Q0986 
EGNX 141850Z 23014KT 9999 -SHRA SCT017 BKN037 04/02 Q0985   
EGNX 141820Z 22010KT 9999 BKN046 04/02 Q0985
EGNX 141750Z 22011KT 9999 FEW021 BKN030 04/01 Q0985 
EGNX 141720Z 22013KT 9999 SCT023 BKN038 04/01 Q0985 
EGNX 141650Z 21014KT 9999 BKN030 04/01 Q0985
EGNX 141620Z 21013KT 9999 FEW015 SCT031 04/01 Q0985 
EGNX 141520Z 22012KT 9999 SCT039 04/01 Q0985
EGNX 141450Z 22012KT 9999 SCT023 04/01 Q0985
EGNX 141420Z 22015KT 9999 SCT025 05/01 Q0986
EGNX 141350Z 22015KT 9999 SCT025 05/01 Q0986
EGNX 141320Z 23016KT 9999 SCT023 05/01 Q0986
EGNX 141250Z 23015KT 9999 BKN021 05/02 Q0987
EGNX 141220Z 22015KT 9999 SCT020 04/01 Q0987
EGNX 141150Z 22014KT 9999 FEW030 04/01 Q0987
EGNX 141120Z 22014KT 9999 FEW030 04/01 Q0988
EGNX 141050Z 22014KT 9999 FEW028 04/01 Q0988
EGNX 141020Z 23014KT 9999 FEW033 03/01 Q0988
EGNX 140950Z 23014KT 9999 FEW033 03/01 Q0988
EGNX 140920Z 23014KT 9999 FEW033 02/00 Q0988
EGNX 140850Z 22013KT 9999 FEW033 02/00 Q0988
EGNX 140820Z 22012KT 9999 FEW028 SCT032 02/00 Q0988 
EGNX 140720Z 22013KT 9999 FEW018 SCT026 02/00 Q0988 
EGNX 140650Z 22012KT 9999 FEW018 SCT032 02/00 Q0989 
EGNX 140620Z 25014KT 9999 FEW018 SCT031 03/01 Q0989 
EGNX 140550Z 23013KT 9999 FEW017 SCT023 03/01 Q0988 
EGNX 140520Z 24017KT 9999 FEW017 SCT026 03/01 Q0988 
EGNX 140420Z 25021KT 9999 -RA FEW013 BKN023 03/01 Q0988 
EGNX 140220Z 24019KT 9999 BKN026 BKN049 02/01 Q0988 
EGNX 140150Z 23015KT 9999 FEW015 BKN024 02/00 Q0988 
EGNX 140120Z 23015KT 9999 BKN027 BKN041 02/00 Q0988 
EGNX 140050Z 25018KT 9999 BKN031 02/M00 Q0988   
EGNX 140020Z 26020KT CAVOK 02/M00 Q0988 
EGNX 132350Z 25020KT CAVOK 01/M00 Q0988